createdAt,value
2018-12-19T00:03:04.680Z,90.90
2018-12-19T00:13:15.060Z,99.57
2018-12-19T00:23:19.229Z,101.97
2018-12-19T00:33:23.341Z,101.20
2018-12-19T00:43:27.532Z,95.30
2018-12-19T00:53:31.754Z,106.60
2018-12-19T01:03:35.896Z,103.47
2018-12-19T01:13:40.039Z,108.47
2018-12-19T01:23:44.139Z,109.07
2018-12-19T01:33:49.130Z,118.20
2018-12-19T01:43:53.301Z,113.50
2018-12-19T01:53:57.423Z,108.30
2018-12-19T02:04:01.682Z,101.17
2018-12-19T02:14:05.836Z,90.07
2018-12-19T02:24:09.980Z,94.17
2018-12-19T02:34:14.377Z,96.93
2018-12-19T02:44:18.452Z,83.37
2018-12-19T02:54:23.715Z,86.10
2018-12-19T03:04:27.914Z,75.40
2018-12-19T03:14:32.058Z,64.23
2018-12-19T03:24:36.137Z,66.67
2018-12-19T03:34:40.225Z,57.80
2018-12-19T03:44:44.317Z,58.17
2018-12-19T03:54:48.411Z,58.20
2018-12-19T04:04:52.513Z,51.97
2018-12-19T04:14:56.666Z,43.97
2018-12-19T04:25:00.760Z,41.77
2018-12-19T04:35:05.072Z,35.93
2018-12-19T04:45:09.253Z,34.90
2018-12-19T04:55:13.424Z,28.17
2018-12-19T05:05:17.606Z,26.17
2018-12-19T05:15:21.751Z,21.60
2018-12-19T05:25:25.994Z,21.97
2018-12-19T05:35:30.114Z,22.27
2018-12-19T05:45:34.198Z,26.40
2018-12-19T05:55:38.299Z,35.77
2018-12-19T06:05:42.438Z,48.40
2018-12-19T06:15:46.567Z,55.83
2018-12-19T06:25:50.721Z,68.37
2018-12-19T06:35:54.856Z,49.63
2018-12-19T06:45:58.967Z,49.43
2018-12-19T06:56:03.143Z,54.90
2018-12-19T07:06:07.290Z,68.20
2018-12-19T07:16:11.543Z,70.17
2018-12-19T07:26:15.705Z,74.07
2018-12-19T07:36:19.882Z,71.77
2018-12-19T07:46:24.343Z,71.13
2018-12-19T07:56:28.830Z,74.43
2018-12-19T08:06:33.055Z,74.23
2018-12-19T08:16:37.311Z,71.43
2018-12-19T08:26:41.445Z,57.00
2018-12-19T08:36:45.979Z,44.03
2018-12-19T08:46:50.445Z,57.87
2018-12-19T08:56:54.619Z,55.93
2018-12-19T09:06:58.999Z,67.60
2018-12-19T09:17:03.364Z,60.23
2018-12-19T09:27:07.598Z,53.07
2018-12-19T09:37:11.766Z,61.37
2018-12-19T09:47:15.906Z,63.80
2018-12-19T09:57:20.886Z,36.57
2018-12-19T10:07:25.132Z,59.23
2018-12-19T10:17:29.287Z,43.40
2018-12-19T10:27:33.433Z,59.47
2018-12-19T10:37:37.562Z,57.50
2018-12-19T10:47:41.973Z,57.73
2018-12-19T10:57:46.243Z,49.40
2018-12-19T11:07:50.437Z,56.20
2018-12-19T11:17:54.633Z,51.63
2018-12-19T11:27:58.859Z,49.10
2018-12-19T11:38:03.005Z,48.53
2018-12-19T11:48:07.286Z,46.63
2018-12-19T11:58:11.684Z,44.10
2018-12-19T12:08:15.876Z,42.87
2018-12-19T12:18:20.163Z,42.17
2018-12-19T12:28:24.402Z,50.33
2018-12-19T12:38:34.079Z,47.43
2018-12-19T12:48:35.073Z,49.63
2018-12-19T12:58:39.192Z,58.43
2018-12-19T13:08:43.321Z,54.47
2018-12-19T13:18:48.192Z,56.53
2018-12-19T13:28:52.620Z,47.27
2018-12-19T13:38:57.094Z,58.10
2018-12-19T13:49:01.283Z,60.73
2018-12-19T13:59:06.161Z,71.40
2018-12-19T14:09:10.309Z,78.30
2018-12-19T14:19:14.531Z,73.20
2018-12-19T14:29:19.705Z,79.97
2018-12-19T14:39:23.836Z,71.70
2018-12-19T14:49:28.061Z,65.63
2018-12-19T14:59:32.145Z,82.20
2018-12-19T15:09:36.267Z,71.43
2018-12-19T15:19:40.378Z,79.30
2018-12-19T15:29:44.768Z,52.80
2018-12-19T15:39:48.954Z,68.97
2018-12-19T15:49:53.084Z,55.10
2018-12-19T15:59:57.349Z,72.43
2018-12-19T16:10:01.456Z,74.53
2018-12-19T16:20:07.295Z,72.80
2018-12-19T16:30:11.642Z,76.93
2018-12-19T16:40:16.041Z,77.30
2018-12-19T16:50:20.431Z,90.77
2018-12-19T17:00:24.539Z,63.10
2018-12-19T17:10:28.692Z,71.30
2018-12-19T17:20:33.391Z,61.67
2018-12-19T17:30:38.669Z,56.60
2018-12-19T17:40:43.208Z,51.77
2018-12-19T17:50:47.419Z,48.17
2018-12-19T18:00:51.697Z,38.27
2018-12-19T18:10:55.826Z,43.57
2018-12-19T18:30:29.532Z,78.17
2018-12-19T18:40:35.724Z,76.87
2018-12-19T18:50:39.988Z,35.87
2018-12-19T19:00:47.057Z,41.10
2018-12-19T19:10:51.328Z,35.07
2018-12-19T19:20:55.481Z,41.10
2018-12-19T19:31:00.637Z,24.83
2018-12-19T19:41:04.819Z,31.00
2018-12-19T19:51:09.009Z,38.53
2018-12-19T20:01:13.299Z,37.30
2018-12-19T20:11:17.499Z,20.57
2018-12-19T20:21:21.799Z,35.67
2018-12-19T20:31:25.997Z,32.53
2018-12-19T20:41:30.137Z,35.87
2018-12-19T20:51:34.358Z,33.53
2018-12-19T21:01:38.651Z,30.17
2018-12-19T21:11:42.929Z,33.60
2018-12-19T21:21:47.101Z,42.67
2018-12-19T21:31:51.344Z,38.50
2018-12-19T21:41:55.569Z,23.33
2018-12-19T21:51:59.889Z,30.97
2018-12-19T22:02:04.323Z,43.63
2018-12-19T22:12:09.425Z,42.97
2018-12-19T22:22:15.026Z,34.77
2018-12-19T22:32:19.241Z,39.47
2018-12-19T22:42:23.516Z,39.63
2018-12-19T22:52:27.638Z,40.13
2018-12-19T23:02:37.394Z,41.33
2018-12-19T23:12:41.543Z,34.30
2018-12-19T23:22:45.650Z,42.40
2018-12-19T23:32:55.310Z,35.80
2018-12-19T23:42:59.895Z,28.07
2018-12-19T23:53:04.194Z,41.50
